Terminal Aerodrome Forecast
Issued by NWS Amarillo, TX

Current Version | Previous Version | Text Only | Print | Product List | Glossary On
Versions: 1 2 3 4 5 6 7 8 9 10 11 12 13 14 15 16 17 18 19 20
000
FTUS44 KAMA 282300
TAFGUY
TAF
KGUY 282320Z 2900/2924 35008KT P6SM VCTS BKN070CB
      TEMPO 2900/2904 VRB25G35KT 5SM TSRA BKN060CB
     FM290600 35008KT P6SM BKN120
     FM291500 30008KT P6SM SCT250=

USA.gov is the U.S. government's official web portal to all federal, state and local government web resources and services.